createdAt,value
2018-08-10T00:00:40.827Z,100658.00
2018-08-10T00:03:10.185Z,100664.00
2018-08-10T00:05:39.923Z,100663.00
2018-08-10T00:08:08.991Z,100667.00
2018-08-10T00:10:37.800Z,100677.00
2018-08-10T00:13:06.693Z,100676.00
2018-08-10T00:15:35.547Z,100672.00
2018-08-10T00:18:04.420Z,100678.00
2018-08-10T00:20:33.259Z,100671.00
2018-08-10T00:23:02.130Z,100685.00
2018-08-10T00:25:31.035Z,100684.00
2018-08-10T00:27:59.904Z,100675.00
2018-08-10T00:30:28.755Z,100684.00
2018-08-10T00:32:57.560Z,100688.00
2018-08-10T00:35:26.446Z,100692.00
2018-08-10T00:37:55.312Z,100682.00
2018-08-10T00:40:24.452Z,100693.00
2018-08-10T00:42:53.315Z,100701.00
2018-08-10T00:45:22.123Z,100709.00
2018-08-10T00:47:51.004Z,100714.00
2018-08-10T00:50:19.921Z,100706.00
2018-08-10T00:52:49.015Z,100715.00
2018-08-10T00:55:19.113Z,100724.00
2018-08-10T00:57:48.652Z,100720.00
2018-08-10T01:00:22.414Z,100719.00
2018-08-10T01:02:52.121Z,100729.00
2018-08-10T01:05:20.951Z,100725.00
2018-08-10T01:07:49.833Z,100729.00
2018-08-10T01:10:20.104Z,100728.00
2018-08-10T01:12:49.030Z,100727.00
2018-08-10T01:15:18.421Z,100727.00
2018-08-10T01:17:47.528Z,100744.00
2018-08-10T01:20:21.199Z,100739.00
2018-08-10T01:22:55.271Z,100739.00
2018-08-10T01:25:25.882Z,100746.00
2018-08-10T01:28:02.033Z,100757.00
2018-08-10T01:30:31.986Z,100753.00
2018-08-10T01:33:01.163Z,100760.00
2018-08-10T01:35:30.523Z,100766.00
2018-08-10T01:38:00.494Z,100761.00
2018-08-10T01:40:29.536Z,100770.00
2018-08-10T01:42:58.441Z,100762.00
2018-08-10T01:45:27.277Z,100771.00
2018-08-10T01:47:56.108Z,100760.00
2018-08-10T01:50:24.967Z,100761.00
2018-08-10T01:52:53.812Z,100761.00
2018-08-10T01:55:22.781Z,100775.00
2018-08-10T01:57:51.673Z,100771.00
2018-08-10T02:00:20.479Z,100780.00
2018-08-10T02:02:49.320Z,100784.00
2018-08-10T02:05:18.184Z,100776.00
2018-08-10T02:07:47.027Z,100797.00
2018-08-10T02:10:17.112Z,100802.00
2018-08-10T02:12:52.064Z,100805.00
2018-08-10T02:15:20.875Z,100811.00
2018-08-10T02:17:49.948Z,100826.00
2018-08-10T02:20:20.237Z,100821.00
2018-08-10T02:22:49.062Z,100822.00
2018-08-10T02:25:19.246Z,100830.00
2018-08-10T02:27:49.107Z,100837.00
2018-08-10T02:30:19.140Z,100847.00
2018-08-10T02:32:48.805Z,100833.00
2018-08-10T02:35:17.643Z,100834.00
2018-08-10T02:37:46.484Z,100835.00
2018-08-10T02:40:20.668Z,100835.00
2018-08-10T02:42:50.207Z,100848.00
2018-08-10T02:45:19.203Z,100851.00
2018-08-10T02:47:48.733Z,100848.00
2018-08-10T02:50:17.629Z,100847.00
2018-08-10T02:52:46.641Z,100850.00
2018-08-10T02:55:15.579Z,100848.00
2018-08-10T02:57:44.492Z,100850.00
2018-08-10T03:00:15.173Z,100858.00
2018-08-10T03:02:44.516Z,100862.00
2018-08-10T03:05:13.464Z,100856.00
2018-08-10T03:07:42.487Z,100856.00
2018-08-10T03:10:12.686Z,100861.00
2018-08-10T03:12:41.584Z,100865.00
2018-08-10T03:15:15.232Z,100879.00
2018-08-10T03:17:44.661Z,100877.00
2018-08-10T03:20:13.723Z,100890.00
2018-08-10T03:22:42.886Z,100897.00
2018-08-10T03:25:13.304Z,100897.00
2018-08-10T03:27:42.155Z,100899.00
2018-08-10T03:30:12.383Z,100895.00
2018-08-10T03:32:41.245Z,100901.00
2018-08-10T03:35:10.132Z,100896.00
2018-08-10T03:37:39.298Z,100903.00
2018-08-10T03:40:11.375Z,100901.00
2018-08-10T03:42:40.236Z,100909.00
2018-08-10T03:45:09.426Z,100912.00
2018-08-10T03:47:38.304Z,100916.00
2018-08-10T03:50:09.619Z,100925.00
2018-08-10T03:52:38.472Z,100929.00
2018-08-10T03:55:07.869Z,100930.00
2018-08-10T03:57:36.767Z,100929.00
2018-08-10T04:00:08.204Z,100930.00
2018-08-10T04:02:37.208Z,100930.00
2018-08-10T04:05:06.756Z,100942.00
2018-08-10T04:07:35.641Z,100941.00
2018-08-10T04:10:05.320Z,100945.00
2018-08-10T04:12:34.110Z,100945.00
2018-08-10T04:15:02.967Z,100947.00
2018-08-10T04:17:31.865Z,100944.00
2018-08-10T04:20:00.702Z,100953.00
2018-08-10T04:22:29.534Z,100947.00
2018-08-10T04:24:58.402Z,100953.00
2018-08-10T04:27:27.245Z,100955.00
2018-08-10T04:29:56.131Z,100960.00
2018-08-10T04:32:25.329Z,100977.00
2018-08-10T04:34:54.175Z,100974.00
2018-08-10T04:37:23.011Z,100973.00
2018-08-10T04:39:51.856Z,100986.00
2018-08-10T04:42:20.680Z,100987.00
2018-08-10T04:44:49.475Z,100988.00
2018-08-10T04:47:18.323Z,100985.00
2018-08-10T04:49:47.190Z,100989.00
2018-08-10T04:52:16.003Z,101000.00
2018-08-10T04:54:44.884Z,101010.00
2018-08-10T04:57:13.706Z,101023.00
2018-08-10T04:59:42.565Z,101018.00
2018-08-10T05:02:11.488Z,101041.00
2018-08-10T05:04:40.372Z,101021.00
2018-08-10T05:07:09.228Z,101019.00
2018-08-10T05:09:38.072Z,101017.00
2018-08-10T05:12:06.907Z,101029.00
2018-08-10T05:14:35.764Z,101030.00
2018-08-10T05:17:04.575Z,101038.00
2018-08-10T05:19:33.474Z,101039.00
2018-08-10T05:22:02.317Z,101057.00
2018-08-10T05:24:31.155Z,101049.00
2018-08-10T05:27:00.040Z,101056.00
2018-08-10T05:29:28.884Z,101057.00
2018-08-10T05:31:57.761Z,101060.00
2018-08-10T05:34:26.620Z,101066.00
2018-08-10T05:36:55.443Z,101076.00
2018-08-10T05:39:24.275Z,101084.00
2018-08-10T05:41:53.116Z,101095.00
2018-08-10T05:44:21.997Z,101106.00
2018-08-10T05:46:51.152Z,101115.00
2018-08-10T05:49:19.999Z,101121.00
2018-08-10T05:51:48.904Z,101123.00
2018-08-10T05:54:17.758Z,101125.00
2018-08-10T05:56:46.621Z,101119.00
2018-08-10T05:59:15.415Z,101127.00
2018-08-10T06:01:44.244Z,101155.00
2018-08-10T06:04:13.078Z,101147.00
2018-08-10T06:06:41.981Z,101150.00
2018-08-10T06:09:13.879Z,101166.00
2018-08-10T06:11:43.699Z,101166.00
2018-08-10T06:14:13.247Z,101162.00
2018-08-10T06:16:42.137Z,101173.00
2018-08-10T06:19:11.036Z,101180.00
2018-08-10T06:21:40.019Z,101187.00
2018-08-10T06:24:08.719Z,101195.00
2018-08-10T06:26:37.562Z,101197.00
2018-08-10T06:29:06.415Z,101211.00
2018-08-10T06:31:35.298Z,101223.00
2018-08-10T06:34:04.118Z,101230.00
2018-08-10T06:36:32.935Z,101234.00
2018-08-10T06:39:01.797Z,101242.00
2018-08-10T06:41:30.591Z,101257.00
2018-08-10T06:43:59.520Z,101257.00
2018-08-10T06:46:28.338Z,101272.00
2018-08-10T06:48:57.256Z,101274.00
2018-08-10T06:51:26.120Z,101276.00
2018-08-10T06:53:54.993Z,101275.00
2018-08-10T06:56:23.876Z,101274.00
2018-08-10T06:58:52.791Z,101273.00
2018-08-10T07:01:21.664Z,101291.00
2018-08-10T07:03:50.453Z,101283.00
2018-08-10T07:06:19.251Z,101289.00
2018-08-10T07:08:48.150Z,101284.00
2018-08-10T07:11:17.084Z,101275.00
2018-08-10T07:13:45.914Z,101268.00
2018-08-10T07:16:14.764Z,101290.00
2018-08-10T07:18:43.693Z,101288.00
2018-08-10T07:21:12.555Z,101298.00
2018-08-10T07:23:41.425Z,101310.00
2018-08-10T07:26:10.275Z,101307.00
2018-08-10T07:28:39.064Z,101319.00
2018-08-10T07:31:07.916Z,101329.00
2018-08-10T07:33:36.845Z,101337.00
2018-08-10T07:36:05.782Z,101319.00
2018-08-10T07:38:34.618Z,101326.00
2018-08-10T07:41:03.481Z,101341.00
2018-08-10T07:43:32.340Z,101339.00
2018-08-10T07:46:01.197Z,101342.00
2018-08-10T07:48:30.032Z,101349.00
2018-08-10T07:50:58.872Z,101364.00
2018-08-10T07:53:27.708Z,101365.00
2018-08-10T07:55:56.638Z,101375.00
2018-08-10T07:58:25.446Z,101366.00
2018-08-10T08:00:54.304Z,101382.00
2018-08-10T08:03:23.202Z,101384.00
2018-08-10T08:05:52.028Z,101397.00
2018-08-10T08:08:20.937Z,101398.00
2018-08-10T08:10:49.793Z,101405.00
2018-08-10T08:13:18.590Z,101408.00
2018-08-10T08:15:47.462Z,101415.00
2018-08-10T08:18:16.286Z,101416.00
2018-08-10T08:21:10.181Z,101406.00
2018-08-10T08:23:39.042Z,101417.00
2018-08-10T08:26:07.932Z,101429.00
2018-08-10T08:28:37.059Z,101437.00
2018-08-10T08:31:06.315Z,101461.00
2018-08-10T08:33:51.296Z,101437.00
2018-08-10T08:36:20.177Z,101444.00
2018-08-10T08:39:15.364Z,101467.00
2018-08-10T08:41:44.238Z,101448.00
2018-08-10T08:44:44.092Z,101457.00
2018-08-10T08:47:12.931Z,101458.00
2018-08-10T08:49:41.776Z,101458.00
2018-08-10T08:52:10.643Z,101467.00
2018-08-10T08:55:47.876Z,101472.00
2018-08-10T08:58:16.732Z,101474.00
2018-08-10T09:00:45.592Z,101483.00
2018-08-10T09:03:32.639Z,101464.00
2018-08-10T09:06:01.791Z,101472.00
2018-08-10T09:08:30.627Z,101463.00
2018-08-10T09:11:00.654Z,101467.00
2018-08-10T09:13:44.437Z,101473.00
2018-08-10T09:16:13.251Z,101477.00
2018-08-10T09:18:42.062Z,101465.00
2018-08-10T09:21:10.943Z,101474.00
2018-08-10T09:23:39.833Z,101464.00
2018-08-10T09:26:08.630Z,101474.00
2018-08-10T09:28:37.501Z,101466.00
2018-08-10T09:31:06.516Z,101477.00
2018-08-10T09:33:35.577Z,101480.00
2018-08-10T09:36:04.439Z,101501.00
2018-08-10T09:38:33.269Z,101478.00
2018-08-10T09:41:02.103Z,101475.00
2018-08-10T09:43:30.939Z,101476.00
2018-08-10T09:45:59.744Z,101469.00
2018-08-10T09:48:28.596Z,101472.00
2018-08-10T09:50:57.435Z,101471.00
2018-08-10T09:53:26.278Z,101475.00
2018-08-10T09:55:55.108Z,101493.00
2018-08-10T09:58:23.923Z,101481.00
2018-08-10T10:00:59.791Z,101483.00
2018-08-10T10:03:28.631Z,101489.00
2018-08-10T10:05:58.973Z,101491.00
2018-08-10T10:08:27.987Z,101482.00
2018-08-10T10:10:56.828Z,101488.00
2018-08-10T10:13:25.663Z,101495.00
2018-08-10T10:15:54.484Z,101489.00
2018-08-10T10:18:23.286Z,101493.00
2018-08-10T10:20:52.139Z,101494.00
2018-08-10T10:23:21.006Z,101496.00
2018-08-10T10:25:49.825Z,101491.00
2018-08-10T10:28:18.732Z,101502.00
2018-08-10T10:30:47.622Z,101494.00
2018-08-10T10:33:16.522Z,101504.00
2018-08-10T10:35:45.464Z,101495.00
2018-08-10T10:38:14.385Z,101508.00
2018-08-10T10:40:43.309Z,101508.00
2018-08-10T10:43:12.140Z,101510.00
2018-08-10T10:45:40.999Z,101513.00
2018-08-10T10:48:09.790Z,101511.00
2018-08-10T10:50:38.616Z,101507.00
2018-08-10T10:53:07.555Z,101508.00
2018-08-10T10:55:36.532Z,101512.00
2018-08-10T10:58:05.254Z,101513.00
2018-08-10T11:00:34.140Z,101521.00
2018-08-10T11:03:02.992Z,101516.00
2018-08-10T11:05:31.819Z,101521.00
2018-08-10T11:08:00.640Z,101512.00
2018-08-10T11:10:29.565Z,101517.00
2018-08-10T11:12:58.453Z,101514.00
2018-08-10T11:15:27.324Z,101522.00
2018-08-10T11:17:56.214Z,101534.00
2018-08-10T11:20:25.003Z,101530.00
2018-08-10T11:22:53.819Z,101527.00
2018-08-10T11:25:22.742Z,101537.00
2018-08-10T11:27:51.573Z,101526.00
2018-08-10T11:30:20.591Z,101524.00
2018-08-10T11:32:49.357Z,101533.00
2018-08-10T11:35:18.220Z,101533.00
2018-08-10T11:37:47.082Z,101556.00
2018-08-10T11:40:16.223Z,101540.00
2018-08-10T11:42:45.053Z,101541.00
2018-08-10T11:45:15.301Z,101536.00
2018-08-10T11:47:44.106Z,101539.00
2018-08-10T11:50:12.989Z,101546.00
2018-08-10T11:52:41.791Z,101553.00
2018-08-10T11:55:12.703Z,101554.00
2018-08-10T11:57:41.740Z,101559.00
2018-08-10T12:00:12.520Z,101549.00
2018-08-10T12:02:41.442Z,101554.00
2018-08-10T12:05:12.024Z,101556.00
2018-08-10T12:07:41.103Z,101551.00
2018-08-10T12:10:10.117Z,101558.00
2018-08-10T12:12:39.219Z,101555.00
2018-08-10T12:15:10.943Z,101540.00
2018-08-10T12:17:39.800Z,101549.00
2018-08-10T12:20:09.583Z,101565.00
2018-08-10T12:22:39.149Z,101553.00
2018-08-10T12:25:08.042Z,101548.00
2018-08-10T12:27:37.013Z,101546.00
2018-08-10T12:30:07.865Z,101554.00
2018-08-10T12:32:36.794Z,101552.00
2018-08-10T12:35:05.644Z,101557.00
2018-08-10T12:37:34.467Z,101561.00
2018-08-10T12:40:03.321Z,101565.00
2018-08-10T12:42:32.120Z,101567.00
2018-08-10T12:45:00.979Z,101556.00
2018-08-10T12:47:29.938Z,101567.00
2018-08-10T12:49:58.795Z,101567.00
2018-08-10T12:52:27.623Z,101580.00
2018-08-10T12:54:56.499Z,101584.00
2018-08-10T12:57:25.303Z,101585.00
2018-08-10T12:59:54.090Z,101581.00
2018-08-10T13:02:22.969Z,101575.00
2018-08-10T13:04:51.836Z,101586.00
2018-08-10T13:07:20.667Z,101594.00
2018-08-10T13:09:49.584Z,101591.00
2018-08-10T13:12:18.432Z,101600.00
2018-08-10T13:14:47.256Z,101596.00
2018-08-10T13:17:16.599Z,101593.00
2018-08-10T13:19:45.504Z,101594.00
2018-08-10T13:22:14.295Z,101600.00
2018-08-10T13:24:43.297Z,101592.00
2018-08-10T13:27:12.119Z,101584.00
2018-08-10T13:29:40.977Z,101598.00
2018-08-10T13:32:09.883Z,101598.00
2018-08-10T13:34:38.732Z,101585.00
2018-08-10T13:37:07.611Z,101595.00
2018-08-10T13:39:36.520Z,101595.00
2018-08-10T13:42:05.395Z,101592.00
2018-08-10T13:44:34.265Z,101608.00
2018-08-10T13:47:03.123Z,101615.00
2018-08-10T13:49:32.009Z,101617.00
2018-08-10T13:52:00.917Z,101603.00
2018-08-10T13:54:29.796Z,101609.00
2018-08-10T13:56:58.760Z,101613.00
2018-08-10T13:59:27.594Z,101624.00
2018-08-10T14:01:56.573Z,101605.00
2018-08-10T14:04:25.441Z,101601.00
2018-08-10T14:06:54.290Z,101617.00
2018-08-10T14:09:23.160Z,101615.00
2018-08-10T14:11:52.028Z,101601.00
2018-08-10T14:14:20.888Z,101604.00
2018-08-10T14:16:49.745Z,101609.00
2018-08-10T14:19:18.731Z,101607.00
2018-08-10T14:21:47.562Z,101614.00
2018-08-10T14:24:16.387Z,101609.00
2018-08-10T14:26:45.901Z,101603.00
2018-08-10T14:29:14.724Z,101601.00
2018-08-10T14:31:43.584Z,101598.00
2018-08-10T14:34:12.471Z,101595.00
2018-08-10T14:36:41.311Z,101596.00
2018-08-10T14:39:11.674Z,101590.00
2018-08-10T14:41:40.645Z,101598.00
2018-08-10T14:44:09.446Z,101589.00
2018-08-10T14:46:38.283Z,101612.00
2018-08-10T14:49:08.099Z,101597.00
2018-08-10T14:51:36.939Z,101596.00
2018-08-10T14:54:06.080Z,101588.00
2018-08-10T14:56:34.913Z,101589.00
2018-08-10T14:59:03.695Z,101589.00
2018-08-10T15:01:32.523Z,101588.00
2018-08-10T15:04:01.422Z,101587.00
2018-08-10T15:06:30.223Z,101593.00
2018-08-10T15:08:59.015Z,101590.00
2018-08-10T15:11:27.810Z,101586.00
2018-08-10T15:13:56.619Z,101588.00
2018-08-10T15:16:25.431Z,101579.00
2018-08-10T15:18:54.297Z,101587.00
2018-08-10T15:21:23.199Z,101581.00
2018-08-10T15:23:52.094Z,101591.00
2018-08-10T15:26:20.927Z,101586.00
2018-08-10T15:28:49.780Z,101578.00
2018-08-10T15:31:18.633Z,101578.00
2018-08-10T15:33:47.763Z,101586.00
2018-08-10T15:36:16.557Z,101596.00
2018-08-10T15:38:45.425Z,101587.00
2018-08-10T15:41:14.230Z,101593.00
2018-08-10T15:43:43.127Z,101592.00
2018-08-10T15:46:11.953Z,101581.00
2018-08-10T15:48:40.821Z,101586.00
2018-08-10T15:51:09.672Z,101579.00
2018-08-10T15:53:38.454Z,101587.00
2018-08-10T15:56:07.349Z,101581.00
2018-08-10T15:58:36.176Z,101571.00
2018-08-10T16:01:04.979Z,101580.00
2018-08-10T16:03:33.831Z,101579.00
2018-08-10T16:06:09.411Z,101571.00
2018-08-10T16:08:38.395Z,101577.00
2018-08-10T16:11:07.463Z,101577.00
2018-08-10T16:13:36.257Z,101571.00
2018-08-10T16:16:05.241Z,101578.00
2018-08-10T16:18:34.060Z,101569.00
2018-08-10T16:21:03.043Z,101572.00
2018-08-10T16:23:31.883Z,101567.00
2018-08-10T16:26:00.740Z,101571.00
2018-08-10T16:28:29.598Z,101568.00
2018-08-10T16:30:58.403Z,101565.00
2018-08-10T16:33:27.245Z,101567.00
2018-08-10T16:35:56.118Z,101573.00
2018-08-10T16:38:24.941Z,101568.00
2018-08-10T16:40:53.741Z,101566.00
2018-08-10T16:43:22.583Z,101561.00
2018-08-10T16:45:51.481Z,101555.00
2018-08-10T16:48:20.315Z,101563.00
2018-08-10T16:50:49.219Z,101561.00
2018-08-10T16:53:17.960Z,101561.00
2018-08-10T16:55:46.840Z,101561.00
2018-08-10T16:58:15.697Z,101554.00
2018-08-10T17:00:44.491Z,101562.00
2018-08-10T17:03:13.387Z,101559.00
2018-08-10T17:05:42.239Z,101560.00
2018-08-10T17:08:11.269Z,101556.00
2018-08-10T17:11:15.740Z,101569.00
2018-08-10T17:13:44.575Z,101555.00
2018-08-10T17:16:13.527Z,101562.00
2018-08-10T17:18:42.418Z,101558.00
2018-08-10T17:21:11.408Z,101561.00
2018-08-10T17:23:40.251Z,101559.00
2018-08-10T17:26:09.123Z,101561.00
2018-08-10T17:28:38.006Z,101561.00
2018-08-10T17:31:07.061Z,101557.00
2018-08-10T17:33:36.034Z,101557.00
2018-08-10T17:36:05.232Z,101556.00
2018-08-10T17:38:34.157Z,101559.00
2018-08-10T17:41:03.045Z,101561.00
2018-08-10T17:43:31.992Z,101560.00
2018-08-10T17:46:00.896Z,101574.00
2018-08-10T17:48:29.766Z,101563.00
2018-08-10T17:50:58.634Z,101571.00
2018-08-10T17:53:27.506Z,101567.00
2018-08-10T17:55:56.431Z,101568.00
2018-08-10T17:58:25.271Z,101559.00
2018-08-10T18:00:54.136Z,101557.00
2018-08-10T18:03:22.983Z,101564.00
2018-08-10T18:05:51.819Z,101567.00
2018-08-10T18:08:20.685Z,101567.00
2018-08-10T18:10:49.511Z,101567.00
2018-08-10T18:13:18.375Z,101569.00
2018-08-10T18:15:47.228Z,101574.00
2018-08-10T18:18:16.085Z,101572.00
2018-08-10T18:20:44.951Z,101574.00
2018-08-10T18:23:13.853Z,101577.00
2018-08-10T18:25:42.688Z,101579.00
2018-08-10T18:28:11.530Z,101582.00
2018-08-10T18:30:40.512Z,101585.00
2018-08-10T18:33:09.340Z,101575.00
2018-08-10T18:35:38.196Z,101587.00
2018-08-10T18:38:07.002Z,101591.00
2018-08-10T18:40:35.872Z,101584.00
2018-08-10T18:43:05.086Z,101589.00
2018-08-10T18:45:33.957Z,101597.00
2018-08-10T18:48:02.791Z,101597.00
2018-08-10T18:50:31.648Z,101597.00
2018-08-10T18:53:00.447Z,101597.00
2018-08-10T18:55:29.304Z,101599.00
2018-08-10T18:57:58.209Z,101591.00
2018-08-10T19:00:27.608Z,101593.00
2018-08-10T19:02:56.508Z,101601.00
2018-08-10T19:05:25.356Z,101592.00
2018-08-10T19:07:54.216Z,101595.00
2018-08-10T19:10:25.371Z,101594.00
2018-08-10T19:12:54.236Z,101592.00
2018-08-10T19:15:23.064Z,101597.00
2018-08-10T19:17:51.944Z,101602.00
2018-08-10T19:20:20.820Z,101600.00
2018-08-10T19:22:49.669Z,101598.00
2018-08-10T19:25:18.561Z,101598.00
2018-08-10T19:27:47.439Z,101594.00
2018-08-10T19:30:18.741Z,101599.00
2018-08-10T19:32:48.325Z,101603.00
2018-08-10T19:35:17.843Z,101603.00
2018-08-10T19:37:46.741Z,101612.00
2018-08-10T19:40:16.847Z,101596.00
2018-08-10T19:42:45.697Z,101598.00
2018-08-10T19:45:15.529Z,101595.00
2018-08-10T19:47:44.780Z,101598.00
2018-08-10T19:50:15.220Z,101590.00
2018-08-10T19:52:44.104Z,101601.00
2018-08-10T19:55:14.620Z,101602.00
2018-08-10T19:57:43.537Z,101597.00
2018-08-10T20:00:15.333Z,101596.00
2018-08-10T20:02:46.648Z,101598.00
2018-08-10T20:05:15.701Z,101594.00
2018-08-10T20:07:44.762Z,101604.00
2018-08-10T20:10:14.437Z,101602.00
2018-08-10T20:12:43.363Z,101599.00
2018-08-10T20:15:15.348Z,101598.00
2018-08-10T20:17:44.251Z,101601.00
2018-08-10T20:20:16.460Z,101597.00
2018-08-10T20:22:45.673Z,101596.00
2018-08-10T20:25:15.211Z,101599.00
2018-08-10T20:27:44.060Z,101597.00
2018-08-10T20:30:16.152Z,101597.00
2018-08-10T20:32:45.458Z,101594.00
2018-08-10T20:35:17.415Z,101593.00
2018-08-10T20:37:46.276Z,101595.00
2018-08-10T20:40:17.413Z,101595.00
2018-08-10T20:42:46.575Z,101595.00
2018-08-10T20:45:16.476Z,101597.00
2018-08-10T20:47:45.364Z,101596.00
2018-08-10T20:50:16.031Z,101603.00
2018-08-10T20:52:45.422Z,101594.00
2018-08-10T20:55:14.222Z,101595.00
2018-08-10T20:57:43.786Z,101594.00
2018-08-10T21:00:12.935Z,101590.00
2018-08-10T21:02:43.249Z,101587.00
2018-08-10T21:05:12.445Z,101600.00
2018-08-10T21:07:41.315Z,101592.00
2018-08-10T21:10:12.413Z,101588.00
2018-08-10T21:12:42.257Z,101580.00
2018-08-10T21:15:12.448Z,101587.00
2018-08-10T21:17:42.395Z,101575.00
2018-08-10T21:20:12.891Z,101576.00
2018-08-10T21:22:41.737Z,101575.00
2018-08-10T21:25:11.283Z,101584.00
2018-08-10T21:27:40.669Z,101585.00
2018-08-10T21:30:13.387Z,101578.00
2018-08-10T21:32:42.229Z,101578.00
2018-08-10T21:35:11.311Z,101581.00
2018-08-10T21:37:40.189Z,101579.00
2018-08-10T21:40:09.942Z,101580.00
2018-08-10T21:42:39.064Z,101577.00
2018-08-10T21:45:07.948Z,101570.00
2018-08-10T21:47:37.339Z,101563.00
2018-08-10T21:50:09.163Z,101562.00
2018-08-10T21:52:38.027Z,101569.00
2018-08-10T21:55:06.925Z,101568.00
2018-08-10T21:57:35.736Z,101568.00
2018-08-10T22:00:10.000Z,101571.00
2018-08-10T22:02:38.807Z,101563.00
2018-08-10T22:05:07.663Z,101566.00
2018-08-10T22:07:36.537Z,101565.00
2018-08-10T22:10:05.887Z,101567.00
2018-08-10T22:12:38.912Z,101571.00
2018-08-10T22:15:13.077Z,101561.00
2018-08-10T22:17:47.308Z,101566.00
2018-08-10T22:20:16.197Z,101565.00
2018-08-10T22:22:45.049Z,101563.00
2018-08-10T22:25:13.906Z,101563.00
2018-08-10T22:27:42.708Z,101562.00
2018-08-10T22:30:11.580Z,101566.00
2018-08-10T22:32:40.568Z,101565.00
2018-08-10T22:35:09.505Z,101570.00
2018-08-10T22:37:38.392Z,101569.00
2018-08-10T22:40:07.533Z,101559.00
2018-08-10T22:42:36.582Z,101570.00
2018-08-10T22:45:06.044Z,101568.00
2018-08-10T22:47:34.927Z,101561.00
2018-08-10T22:50:03.808Z,101563.00
2018-08-10T22:52:32.665Z,101562.00
2018-08-10T22:55:01.562Z,101559.00
2018-08-10T22:57:30.399Z,101560.00
2018-08-10T22:59:59.544Z,101564.00
2018-08-10T23:02:28.437Z,101555.00
2018-08-10T23:04:57.249Z,101544.00
2018-08-10T23:07:26.096Z,101550.00
2018-08-10T23:09:54.953Z,101544.00
2018-08-10T23:12:23.759Z,101546.00
2018-08-10T23:14:52.562Z,101546.00
2018-08-10T23:17:21.427Z,101542.00
2018-08-10T23:19:50.292Z,101537.00
2018-08-10T23:22:19.423Z,101542.00
2018-08-10T23:24:48.287Z,101541.00
2018-08-10T23:27:17.112Z,101538.00
2018-08-10T23:29:45.916Z,101542.00
2018-08-10T23:32:14.796Z,101534.00
2018-08-10T23:34:43.664Z,101532.00
2018-08-10T23:37:12.499Z,101534.00
2018-08-10T23:39:41.412Z,101527.00
2018-08-10T23:42:10.253Z,101532.00
2018-08-10T23:44:39.114Z,101530.00
2018-08-10T23:47:08.019Z,101527.00
2018-08-10T23:49:36.819Z,101522.00
2018-08-10T23:52:05.858Z,101522.00
2018-08-10T23:54:34.728Z,101524.00
2018-08-10T23:57:03.639Z,101522.00
2018-08-10T23:59:32.487Z,101525.00
